createdAt,value
2018-05-11T00:00:07.636Z,8.50
2018-05-11T00:01:07.631Z,7.90
2018-05-11T00:02:07.600Z,8.90
2018-05-11T00:03:07.593Z,10.00
2018-05-11T00:04:07.564Z,9.30
2018-05-11T00:05:07.550Z,10.00
2018-05-11T00:06:07.529Z,10.80
2018-05-11T00:07:07.511Z,10.30
2018-05-11T00:08:07.494Z,10.90
2018-05-11T00:09:07.478Z,11.70
2018-05-11T00:10:07.458Z,12.20
2018-05-11T00:11:07.446Z,10.50
2018-05-11T00:12:07.438Z,10.90
2018-05-11T00:13:07.407Z,11.60
2018-05-11T00:14:07.391Z,11.60
2018-05-11T00:15:07.378Z,11.40
2018-05-11T00:16:07.357Z,11.90
2018-05-11T00:17:07.337Z,12.70
2018-05-11T00:18:07.330Z,10.90
2018-05-11T00:19:07.319Z,12.60
2018-05-11T00:20:07.288Z,13.00
2018-05-11T00:21:07.272Z,12.60
2018-05-11T00:22:07.260Z,13.50
2018-05-11T00:23:07.242Z,13.70
2018-05-11T00:24:07.220Z,13.50
2018-05-11T00:25:07.212Z,13.80
2018-05-11T00:26:07.196Z,14.00
2018-05-11T00:27:07.169Z,13.70
2018-05-11T00:28:07.149Z,13.10
2018-05-11T00:29:07.134Z,12.80
2018-05-11T00:30:07.123Z,13.00
2018-05-11T00:31:07.099Z,12.70
2018-05-11T00:32:07.082Z,12.50
2018-05-11T00:33:07.065Z,12.00
2018-05-11T00:34:07.048Z,12.00
2018-05-11T00:35:07.039Z,12.00
2018-05-11T00:36:07.019Z,8.90
2018-05-11T00:37:07.001Z,9.40
2018-05-11T00:38:06.979Z,8.70
2018-05-11T00:39:06.963Z,9.20
2018-05-11T00:40:06.947Z,9.00
2018-05-11T00:41:06.928Z,12.50
2018-05-11T00:42:06.909Z,32.10
2018-05-11T00:43:06.895Z,11.10
2018-05-11T00:44:06.881Z,8.90
2018-05-11T00:45:06.861Z,8.50
2018-05-11T00:46:06.839Z,9.90
2018-05-11T00:47:06.825Z,8.90
2018-05-11T00:48:06.808Z,8.60
2018-05-11T00:49:06.791Z,8.40
2018-05-11T00:50:06.769Z,10.10
2018-05-11T00:51:06.845Z,10.60
2018-05-11T00:52:06.737Z,11.20
2018-05-11T00:53:06.721Z,12.00
2018-05-11T00:54:06.707Z,11.70
2018-05-11T00:55:06.689Z,12.50
2018-05-11T00:56:06.666Z,11.20
2018-05-11T00:57:06.656Z,12.20
2018-05-11T00:58:06.638Z,11.00
2018-05-11T00:59:06.618Z,11.70
2018-05-11T01:00:06.603Z,11.50
2018-05-11T01:01:06.579Z,11.30
2018-05-11T01:02:06.564Z,11.20
2018-05-11T01:03:06.551Z,12.10
2018-05-11T01:04:06.527Z,12.70
2018-05-11T01:05:06.517Z,12.30
2018-05-11T01:06:06.495Z,12.20
2018-05-11T01:07:06.476Z,13.70
2018-05-11T01:08:06.458Z,14.20
2018-05-11T01:09:06.443Z,13.40
2018-05-11T01:10:06.422Z,13.70
2018-05-11T01:11:06.406Z,13.50
2018-05-11T01:12:06.389Z,13.30
2018-05-11T01:13:06.375Z,13.50
2018-05-11T01:14:06.358Z,13.30
2018-05-11T01:15:06.335Z,12.70
2018-05-11T01:16:06.320Z,12.50
2018-05-11T01:17:06.304Z,12.20
2018-05-11T01:18:06.288Z,12.50
2018-05-11T01:19:06.270Z,11.50
2018-05-11T01:20:06.249Z,12.30
2018-05-11T01:21:06.233Z,12.00
2018-05-11T01:22:06.221Z,12.10
2018-05-11T01:23:06.201Z,11.90
2018-05-11T01:24:06.179Z,12.60
2018-05-11T01:25:06.164Z,11.60
2018-05-11T01:26:06.145Z,12.40
2018-05-11T01:27:06.129Z,12.60
2018-05-11T01:28:06.109Z,13.20
2018-05-11T01:29:06.100Z,12.50
2018-05-11T01:30:06.079Z,13.00
2018-05-11T01:31:06.060Z,12.70
2018-05-11T01:32:06.041Z,12.80
2018-05-11T01:33:06.030Z,12.30
2018-05-11T01:34:06.004Z,12.70
2018-05-11T01:35:05.991Z,12.00
2018-05-11T01:36:05.969Z,12.70
2018-05-11T01:37:05.954Z,12.00
2018-05-11T01:38:05.934Z,8.10
2018-05-11T01:39:05.924Z,9.10
2018-05-11T01:40:05.902Z,7.20
2018-05-11T01:41:05.886Z,8.30
2018-05-11T01:42:05.868Z,7.40
2018-05-11T01:43:05.848Z,7.30
2018-05-11T01:44:05.830Z,7.10
2018-05-11T01:45:05.814Z,8.60
2018-05-11T01:46:05.799Z,8.80
2018-05-11T01:47:05.779Z,9.50
2018-05-11T01:48:05.761Z,9.20
2018-05-11T01:49:05.746Z,10.10
2018-05-11T01:50:05.742Z,10.10
2018-05-11T01:51:05.713Z,11.30
2018-05-11T01:52:05.690Z,10.70
2018-05-11T01:53:05.681Z,12.20
2018-05-11T01:54:05.656Z,11.20
2018-05-11T01:55:05.639Z,11.50
2018-05-11T01:56:05.618Z,10.10
2018-05-11T01:57:05.612Z,8.10
2018-05-11T01:58:05.584Z,8.50
2018-05-11T01:59:05.571Z,7.20
2018-05-11T02:00:05.550Z,7.40
2018-05-11T02:01:05.538Z,9.70
2018-05-11T02:02:05.516Z,11.50
2018-05-11T02:03:05.495Z,11.00
2018-05-11T02:04:05.485Z,11.40
2018-05-11T02:05:05.460Z,11.50
2018-05-11T02:06:05.444Z,10.10
2018-05-11T02:07:05.429Z,9.20
2018-05-11T02:08:05.409Z,10.00
2018-05-11T02:09:05.390Z,8.70
2018-05-11T02:10:05.374Z,11.30
2018-05-11T02:11:05.358Z,21.40
2018-05-11T02:12:05.343Z,9.10
2018-05-11T02:13:05.346Z,9.00
2018-05-11T02:14:05.303Z,9.10
2018-05-11T02:15:05.287Z,8.50
2018-05-11T02:16:05.269Z,7.90
2018-05-11T02:17:05.255Z,8.10
2018-05-11T02:18:05.231Z,8.10
2018-05-11T02:19:05.216Z,9.50
2018-05-11T02:20:05.200Z,9.60
2018-05-11T02:21:05.180Z,11.60
2018-05-11T02:22:05.161Z,10.00
2018-05-11T02:23:05.145Z,9.40
2018-05-11T02:24:05.133Z,9.90
2018-05-11T02:25:05.109Z,10.60
2018-05-11T02:26:05.105Z,9.90
2018-05-11T02:27:05.074Z,10.10
2018-05-11T02:28:05.059Z,9.90
2018-05-11T02:29:05.040Z,11.80
2018-05-11T02:30:05.025Z,11.50
2018-05-11T02:31:05.004Z,12.20
2018-05-11T02:32:04.992Z,12.50
2018-05-11T02:33:04.969Z,13.10
2018-05-11T02:34:04.950Z,14.00
2018-05-11T02:35:04.931Z,13.90
2018-05-11T02:36:04.921Z,12.80
2018-05-11T02:37:04.903Z,13.30
2018-05-11T02:38:04.883Z,12.40
2018-05-11T02:39:04.858Z,12.70
2018-05-11T02:40:04.841Z,12.70
2018-05-11T02:41:04.832Z,12.30
2018-05-11T02:42:04.805Z,12.60
2018-05-11T02:43:04.793Z,13.30
2018-05-11T02:44:04.774Z,14.20
2018-05-11T02:45:04.758Z,13.80
2018-05-11T02:46:04.735Z,13.10
2018-05-11T02:47:04.720Z,13.60
2018-05-11T02:48:04.709Z,13.50
2018-05-11T02:49:04.686Z,13.00
2018-05-11T02:50:04.667Z,14.40
2018-05-11T02:51:04.647Z,14.10
2018-05-11T02:52:04.629Z,13.20
2018-05-11T02:53:04.609Z,13.50
2018-05-11T02:54:04.594Z,13.00
2018-05-11T02:55:04.578Z,13.40
2018-05-11T02:56:04.559Z,13.30
2018-05-11T02:57:04.541Z,12.70
2018-05-11T02:58:04.526Z,13.20
2018-05-11T02:59:04.514Z,13.50
2018-05-11T03:00:04.489Z,13.80
2018-05-11T03:01:04.475Z,11.20
2018-05-11T03:02:04.449Z,8.60
2018-05-11T03:03:04.435Z,8.90
2018-05-11T03:04:04.415Z,10.20
2018-05-11T03:05:04.398Z,9.10
2018-05-11T03:06:04.380Z,7.70
2018-05-11T03:07:04.366Z,9.70
2018-05-11T03:08:04.349Z,18.80
2018-05-11T03:09:04.325Z,9.90
2018-05-11T03:10:04.309Z,9.90
2018-05-11T03:11:04.289Z,8.90
2018-05-11T03:12:04.273Z,9.30
2018-05-11T03:13:04.260Z,8.90
2018-05-11T03:14:04.238Z,9.70
2018-05-11T03:15:04.218Z,10.00
2018-05-11T03:16:04.200Z,11.40
2018-05-11T03:17:04.181Z,12.50
2018-05-11T03:18:04.168Z,11.80
2018-05-11T03:19:04.150Z,13.10
2018-05-11T03:20:04.128Z,12.00
2018-05-11T03:21:04.112Z,13.00
2018-05-11T03:22:04.096Z,11.90
2018-05-11T03:23:04.077Z,11.40
2018-05-11T03:24:04.058Z,12.30
2018-05-11T03:25:04.039Z,9.90
2018-05-11T03:26:04.021Z,10.50
2018-05-11T03:27:04.008Z,10.50
2018-05-11T03:28:03.990Z,10.80
2018-05-11T03:29:03.966Z,10.10
2018-05-11T03:30:03.948Z,10.60
2018-05-11T03:31:03.936Z,10.00
2018-05-11T03:32:03.915Z,10.40
2018-05-11T03:33:03.904Z,10.90
2018-05-11T03:34:03.879Z,11.00
2018-05-11T03:35:03.860Z,10.70
2018-05-11T03:36:03.855Z,12.40
2018-05-11T03:37:03.835Z,12.10
2018-05-11T03:38:03.807Z,12.10
2018-05-11T03:39:03.788Z,12.30
2018-05-11T03:40:03.773Z,14.00
2018-05-11T03:41:03.757Z,13.50
2018-05-11T03:42:03.739Z,14.60
2018-05-11T03:43:03.718Z,13.40
2018-05-11T03:44:03.700Z,14.60
2018-05-11T03:45:03.685Z,14.70
2018-05-11T03:46:03.666Z,15.00
2018-05-11T03:47:03.646Z,13.60
2018-05-11T03:48:03.639Z,15.00
2018-05-11T03:49:03.610Z,14.60
2018-05-11T03:50:03.592Z,14.80
2018-05-11T03:51:03.575Z,14.00
2018-05-11T03:52:03.559Z,14.60
2018-05-11T03:53:03.536Z,12.20
2018-05-11T03:54:03.521Z,12.90
2018-05-11T03:55:03.499Z,14.30
2018-05-11T03:56:03.488Z,15.20
2018-05-11T03:57:03.469Z,14.00
2018-05-11T03:58:03.448Z,14.70
2018-05-11T03:59:03.429Z,15.90
2018-05-11T04:00:03.543Z,15.10
2018-05-11T04:01:03.394Z,16.40
2018-05-11T04:02:03.378Z,16.90
2018-05-11T04:03:03.360Z,16.20
2018-05-11T04:04:03.340Z,15.30
2018-05-11T04:05:03.323Z,15.40
2018-05-11T04:06:03.308Z,15.30
2018-05-11T04:07:03.293Z,15.10
2018-05-11T04:08:03.267Z,15.60
2018-05-11T04:09:03.248Z,17.10
2018-05-11T04:10:03.236Z,16.30
2018-05-11T04:11:03.222Z,15.00
2018-05-11T04:12:03.198Z,15.90
2018-05-11T04:13:03.180Z,16.10
2018-05-11T04:14:03.159Z,16.00
2018-05-11T04:15:03.142Z,16.00
2018-05-11T04:16:03.126Z,16.10
2018-05-11T04:17:03.109Z,16.50
2018-05-11T04:18:03.159Z,16.90
2018-05-11T04:19:03.078Z,18.00
2018-05-11T04:20:03.055Z,18.60
2018-05-11T04:21:03.035Z,17.50
2018-05-11T04:22:03.015Z,15.70
2018-05-11T04:23:03.004Z,15.30
2018-05-11T04:24:02.985Z,17.40
2018-05-11T04:25:02.959Z,17.10
2018-05-11T04:26:02.949Z,17.20
2018-05-11T04:27:02.930Z,17.90
2018-05-11T04:28:02.907Z,18.20
2018-05-11T04:29:02.890Z,17.90
2018-05-11T04:30:02.877Z,19.40
2018-05-11T04:31:02.862Z,20.70
2018-05-11T04:32:02.836Z,19.70
2018-05-11T04:33:02.817Z,21.10
2018-05-11T04:34:02.804Z,19.90
2018-05-11T04:35:02.786Z,20.10
2018-05-11T04:36:02.769Z,19.30
2018-05-11T04:37:02.753Z,18.90
2018-05-11T04:38:02.728Z,19.80
2018-05-11T04:39:02.719Z,21.40
2018-05-11T04:40:02.700Z,22.40
2018-05-11T04:41:02.677Z,21.70
2018-05-11T04:42:02.665Z,20.40
2018-05-11T04:43:02.639Z,20.70
2018-05-11T04:44:02.622Z,19.20
2018-05-11T04:45:02.606Z,20.00
2018-05-11T04:46:02.589Z,20.50
2018-05-11T04:47:02.568Z,20.90
2018-05-11T04:48:02.552Z,21.20
2018-05-11T04:49:02.536Z,20.80
2018-05-11T04:50:02.518Z,19.90
2018-05-11T04:51:02.509Z,22.50
2018-05-11T04:52:02.478Z,22.10
2018-05-11T04:53:02.466Z,22.50
2018-05-11T04:54:02.445Z,20.30
2018-05-11T04:55:02.428Z,21.00
2018-05-11T04:56:02.412Z,20.80
2018-05-11T04:57:02.395Z,19.80
2018-05-11T04:58:02.375Z,21.50
2018-05-11T04:59:02.363Z,19.50
2018-05-11T05:00:02.350Z,21.70
2018-05-11T05:01:02.319Z,20.80
2018-05-11T05:02:02.305Z,20.50
2018-05-11T05:03:02.289Z,21.30
2018-05-11T05:04:02.269Z,20.30
2018-05-11T05:05:02.251Z,20.30
2018-05-11T05:06:02.235Z,23.10
2018-05-11T05:07:02.214Z,23.30
2018-05-11T05:08:02.197Z,22.30
2018-05-11T05:09:02.177Z,21.10
2018-05-11T05:10:02.164Z,22.20
2018-05-11T05:11:02.148Z,23.50
2018-05-11T05:12:02.132Z,22.30
2018-05-11T05:13:02.109Z,22.40
2018-05-11T05:14:02.093Z,23.40
2018-05-11T05:15:02.074Z,23.60
2018-05-11T05:16:02.112Z,23.10
2018-05-11T05:17:02.040Z,25.40
2018-05-11T05:18:02.022Z,24.20
2018-05-11T05:19:02.033Z,24.80
2018-05-11T05:20:01.986Z,25.20
2018-05-11T05:21:01.967Z,23.30
2018-05-11T05:22:01.953Z,24.30
2018-05-11T05:23:01.942Z,24.90
2018-05-11T05:24:01.920Z,24.60
2018-05-11T05:25:01.901Z,24.50
2018-05-11T05:26:01.878Z,24.60
2018-05-11T05:27:01.865Z,24.20
2018-05-11T05:28:01.854Z,24.40
2018-05-11T05:29:01.830Z,24.50
2018-05-11T05:30:01.812Z,23.60
2018-05-11T05:31:01.795Z,24.70
2018-05-11T05:32:01.780Z,24.60
2018-05-11T05:33:01.822Z,25.10
2018-05-11T05:34:01.739Z,24.00
2018-05-11T05:35:01.723Z,26.30
2018-05-11T05:36:01.704Z,24.30
2018-05-11T05:37:01.692Z,24.90
2018-05-11T05:38:01.668Z,24.30
2018-05-11T05:39:01.649Z,24.40
2018-05-11T05:40:01.631Z,25.40
2018-05-11T05:41:01.615Z,23.30
2018-05-11T05:42:01.599Z,24.60
2018-05-11T05:43:01.588Z,24.60
2018-05-11T05:44:01.566Z,23.70
2018-05-11T05:45:01.549Z,23.50
2018-05-11T05:46:01.530Z,22.10
2018-05-11T05:47:01.511Z,23.00
2018-05-11T05:48:01.494Z,25.00
2018-05-11T05:49:01.477Z,24.60
2018-05-11T05:50:01.501Z,25.50
2018-05-11T05:51:01.450Z,26.20
2018-05-11T05:52:01.437Z,30.30
2018-05-11T05:53:01.407Z,29.20
2018-05-11T05:54:01.390Z,33.20
2018-05-11T05:55:01.376Z,32.10
2018-05-11T05:56:01.356Z,27.20
2018-05-11T05:57:01.336Z,28.40
2018-05-11T05:58:01.333Z,29.20
2018-05-11T05:59:01.302Z,28.30
2018-05-11T06:00:01.342Z,27.50
2018-05-11T06:01:01.269Z,26.90
2018-05-11T06:02:01.250Z,26.40
2018-05-11T06:03:01.235Z,31.50
2018-05-11T06:04:01.217Z,29.50
2018-05-11T06:05:01.205Z,29.10
2018-05-11T06:06:01.186Z,31.20
2018-05-11T06:07:01.163Z,29.40
2018-05-11T06:08:01.147Z,27.30
2018-05-11T06:09:01.129Z,27.60
2018-05-11T06:10:01.111Z,28.50
2018-05-11T06:11:01.093Z,29.60
2018-05-11T06:12:01.076Z,27.70
2018-05-11T06:13:01.060Z,29.10
2018-05-11T06:14:01.040Z,29.30
2018-05-11T06:15:01.020Z,28.80
2018-05-11T06:16:01.004Z,29.50
2018-05-11T06:17:00.990Z,29.20
2018-05-11T06:18:00.970Z,29.30
2018-05-11T06:19:00.954Z,30.60
2018-05-11T06:20:00.934Z,30.50
2018-05-11T06:21:00.915Z,30.10
2018-05-11T06:22:00.909Z,30.80
2018-05-11T06:23:00.881Z,31.90
2018-05-11T06:24:00.866Z,31.40
2018-05-11T06:25:00.861Z,28.30
2018-05-11T06:26:00.835Z,29.60
2018-05-11T06:27:00.809Z,28.00
2018-05-11T06:28:00.799Z,30.10
2018-05-11T06:29:00.778Z,32.20
2018-05-11T06:30:00.793Z,31.80
2018-05-11T06:31:00.744Z,35.80
2018-05-11T06:32:00.723Z,30.70
2018-05-11T06:33:00.709Z,31.50
2018-05-11T06:34:00.691Z,32.40
2018-05-11T06:35:00.674Z,28.80
2018-05-11T06:36:00.659Z,30.40
2018-05-11T06:37:00.638Z,29.60
2018-05-11T06:38:00.626Z,29.70
2018-05-11T06:39:00.609Z,27.40
2018-05-11T06:40:00.586Z,27.30
2018-05-11T06:41:00.579Z,27.20
2018-05-11T06:42:00.557Z,27.10
2018-05-11T06:43:00.534Z,26.40
2018-05-11T06:44:00.516Z,27.50
2018-05-11T06:45:00.500Z,28.00
2018-05-11T06:46:00.594Z,28.40
2018-05-11T06:47:00.471Z,27.50
2018-05-11T06:48:00.455Z,27.80
2018-05-11T06:49:00.435Z,30.00
2018-05-11T06:50:00.415Z,27.80
2018-05-11T06:51:00.396Z,30.80
2018-05-11T06:52:00.379Z,27.70
2018-05-11T06:53:00.363Z,27.40
2018-05-11T06:54:00.342Z,30.00
2018-05-11T06:55:00.327Z,27.60
2018-05-11T06:56:00.309Z,27.60
2018-05-11T06:57:00.289Z,29.00
2018-05-11T06:58:00.282Z,29.40
2018-05-11T06:59:00.259Z,27.00
2018-05-11T07:00:00.245Z,29.10
2018-05-11T07:01:00.222Z,28.70
2018-05-11T07:02:00.203Z,29.90
2018-05-11T07:03:00.199Z,28.30
2018-05-11T07:04:00.168Z,27.80
2018-05-11T07:05:00.151Z,27.00
2018-05-11T07:06:00.132Z,27.10
2018-05-11T07:07:00.116Z,28.20
2018-05-11T07:08:00.103Z,28.20
2018-05-11T07:09:00.082Z,27.60
2018-05-11T07:10:00.066Z,28.60
2018-05-11T07:11:00.048Z,28.70
2018-05-11T07:12:00.027Z,28.70
2018-05-11T07:13:00.023Z,28.70
2018-05-11T07:13:59.997Z,28.40
2018-05-11T07:14:59.985Z,28.00
2018-05-11T07:15:59.963Z,26.60
2018-05-11T07:16:59.941Z,27.50
2018-05-11T07:17:59.927Z,28.20
2018-05-11T07:18:59.908Z,27.90
2018-05-11T07:19:59.922Z,29.00
2018-05-11T07:20:59.874Z,28.50
2018-05-11T07:21:59.858Z,31.10
2018-05-11T07:22:59.848Z,30.90
2018-05-11T07:23:59.825Z,29.50
2018-05-11T07:24:59.811Z,31.20
2018-05-11T07:25:59.789Z,29.50
2018-05-11T07:26:59.789Z,27.50
2018-05-11T07:27:59.758Z,30.70
2018-05-11T07:28:59.739Z,31.40
2018-05-11T07:29:59.731Z,31.60
2018-05-11T07:30:59.706Z,30.10
2018-05-11T07:31:59.687Z,32.20
2018-05-11T07:32:59.674Z,29.40
2018-05-11T07:33:59.656Z,29.10
2018-05-11T07:34:59.708Z,27.60
2018-05-11T07:35:59.620Z,29.50
2018-05-11T07:36:59.602Z,27.80
2018-05-11T07:37:59.585Z,26.20
2018-05-11T07:38:59.569Z,27.30
2018-05-11T07:39:59.551Z,27.40
2018-05-11T07:40:59.534Z,28.60
2018-05-11T07:41:59.517Z,27.50
2018-05-11T07:42:59.503Z,25.60
2018-05-11T07:43:59.480Z,27.80
2018-05-11T07:44:59.463Z,28.80
2018-05-11T07:45:59.454Z,27.60
2018-05-11T07:46:59.428Z,28.60
2018-05-11T07:47:59.418Z,26.70
2018-05-11T07:48:59.399Z,26.00
2018-05-11T07:49:59.381Z,25.80
2018-05-11T07:50:59.365Z,24.30
2018-05-11T07:51:59.355Z,24.80
2018-05-11T07:52:59.336Z,24.00
2018-05-11T07:53:59.309Z,23.50
2018-05-11T07:54:59.296Z,25.50
2018-05-11T07:55:59.280Z,24.50
2018-05-11T07:56:59.258Z,24.00
2018-05-11T07:57:59.240Z,23.20
2018-05-11T07:58:59.226Z,22.90
2018-05-11T07:59:59.208Z,23.30
2018-05-11T08:00:59.199Z,22.20
2018-05-11T08:01:59.173Z,22.60
2018-05-11T08:02:59.164Z,22.30
2018-05-11T08:03:59.154Z,21.40
2018-05-11T08:04:59.125Z,21.30
2018-05-11T08:05:59.112Z,23.30
2018-05-11T08:06:59.091Z,23.10
2018-05-11T08:07:59.070Z,22.50
2018-05-11T08:08:59.059Z,23.40
2018-05-11T08:09:59.038Z,24.00
2018-05-11T08:10:59.022Z,23.10
2018-05-11T08:11:59.017Z,23.30
2018-05-11T08:12:58.985Z,22.20
2018-05-11T08:13:58.972Z,23.90
2018-05-11T08:14:58.954Z,23.20
2018-05-11T08:15:58.940Z,23.20
2018-05-11T08:16:58.924Z,23.50
2018-05-11T08:17:58.907Z,24.20
2018-05-11T08:18:58.890Z,24.40
2018-05-11T08:19:58.869Z,25.30
2018-05-11T08:20:58.851Z,23.20
2018-05-11T08:21:58.836Z,24.10
2018-05-11T08:22:58.819Z,23.10
2018-05-11T08:23:58.809Z,21.50
2018-05-11T08:24:58.801Z,21.80
2018-05-11T08:25:58.771Z,20.80
2018-05-11T08:26:58.792Z,21.60
2018-05-11T08:27:58.733Z,21.70
2018-05-11T08:28:58.721Z,20.70
2018-05-11T08:29:58.706Z,21.50
2018-05-11T08:30:58.687Z,21.80
2018-05-11T08:31:58.667Z,20.70
2018-05-11T08:32:58.655Z,21.10
2018-05-11T08:33:58.642Z,21.30
2018-05-11T08:34:58.618Z,20.60
2018-05-11T08:35:58.767Z,20.60
2018-05-11T08:36:58.586Z,20.10
2018-05-11T08:37:58.570Z,21.30
2018-05-11T08:38:58.553Z,20.60
2018-05-11T08:39:58.540Z,19.30
2018-05-11T08:40:58.522Z,19.50
2018-05-11T08:41:58.504Z,19.50
2018-05-11T08:42:58.494Z,21.10
2018-05-11T08:43:58.469Z,19.50
2018-05-11T08:44:58.467Z,19.70
2018-05-11T08:45:58.443Z,19.00
2018-05-11T08:46:58.429Z,18.50
2018-05-11T08:47:58.428Z,19.60
2018-05-11T08:48:58.391Z,18.90
2018-05-11T08:49:58.381Z,19.00
2018-05-11T08:50:58.361Z,18.60
2018-05-11T08:51:58.396Z,18.50
2018-05-11T08:52:58.326Z,19.50
2018-05-11T08:53:58.310Z,17.90
2018-05-11T08:54:58.306Z,18.20
2018-05-11T08:55:58.345Z,19.40
2018-05-11T08:56:58.260Z,18.60
2018-05-11T08:57:58.250Z,17.70
2018-05-11T08:58:58.234Z,16.90
2018-05-11T08:59:58.212Z,19.10
2018-05-11T09:00:58.197Z,18.40
2018-05-11T09:01:58.185Z,19.40
2018-05-11T09:02:58.205Z,18.90
2018-05-11T09:03:58.150Z,20.00
2018-05-11T09:04:58.141Z,18.10
2018-05-11T09:05:58.131Z,19.40
2018-05-11T09:06:58.108Z,20.20
2018-05-11T09:07:58.092Z,19.20
2018-05-11T09:08:58.076Z,19.90
2018-05-11T09:09:58.072Z,20.20
2018-05-11T09:10:58.044Z,19.60
2018-05-11T09:11:58.031Z,19.40
2018-05-11T09:12:58.012Z,19.60
2018-05-11T09:13:57.994Z,20.50
2018-05-11T09:14:57.977Z,20.20
2018-05-11T09:15:57.990Z,19.90
2018-05-11T09:16:57.963Z,19.80
2018-05-11T09:17:57.929Z,20.50
2018-05-11T09:18:57.917Z,19.40
2018-05-11T09:19:57.900Z,19.00
2018-05-11T09:20:57.880Z,20.20
2018-05-11T09:21:57.881Z,20.10
2018-05-11T09:22:57.850Z,20.90
2018-05-11T09:23:57.835Z,20.20
2018-05-11T09:24:57.820Z,19.70
2018-05-11T09:25:57.807Z,21.00
2018-05-11T09:26:57.792Z,20.60
2018-05-11T09:27:57.770Z,19.30
2018-05-11T09:28:57.754Z,20.60
2018-05-11T09:29:57.738Z,19.50
2018-05-11T09:30:57.722Z,19.40
2018-05-11T09:31:57.709Z,19.50
2018-05-11T09:32:57.693Z,20.30
2018-05-11T09:33:57.676Z,20.70
2018-05-11T09:34:57.660Z,20.90
2018-05-11T09:35:57.644Z,20.80
2018-05-11T09:36:57.632Z,20.70
2018-05-11T09:37:57.610Z,19.20
2018-05-11T09:38:57.603Z,19.80
2018-05-11T09:39:57.579Z,20.20
2018-05-11T09:40:57.570Z,21.90
2018-05-11T09:41:57.552Z,20.70
2018-05-11T09:42:57.537Z,21.70
2018-05-11T09:43:57.524Z,20.60
2018-05-11T09:44:57.502Z,21.00
2018-05-11T09:45:57.489Z,19.80
2018-05-11T09:46:57.478Z,20.00
2018-05-11T09:47:57.454Z,22.30
2018-05-11T09:48:57.440Z,21.50
2018-05-11T09:49:57.429Z,20.80
2018-05-11T09:50:57.408Z,19.30
2018-05-11T09:51:57.393Z,20.10
2018-05-11T09:52:57.381Z,18.70
2018-05-11T09:53:57.364Z,19.60
2018-05-11T09:54:57.426Z,19.50
2018-05-11T09:55:57.341Z,19.00
2018-05-11T09:56:57.321Z,19.80
2018-05-11T09:57:57.302Z,17.80
2018-05-11T09:58:57.281Z,17.00
2018-05-11T09:59:57.274Z,18.00
2018-05-11T10:00:57.264Z,18.70
2018-05-11T10:01:57.245Z,19.70
2018-05-11T10:02:57.224Z,17.10
2018-05-11T10:03:57.206Z,17.40
2018-05-11T10:04:57.198Z,17.70
2018-05-11T10:05:57.182Z,17.50
2018-05-11T10:06:57.172Z,18.00
2018-05-11T10:07:57.178Z,17.50
2018-05-11T10:08:57.131Z,17.60
2018-05-11T10:09:57.108Z,17.20
2018-05-11T10:10:57.101Z,18.00
2018-05-11T10:11:57.083Z,16.90
2018-05-11T10:12:57.069Z,17.10
2018-05-11T10:13:57.055Z,17.00
2018-05-11T10:14:57.045Z,18.00
2018-05-11T10:15:57.024Z,17.70
2018-05-11T10:16:57.003Z,19.00
2018-05-11T10:17:56.995Z,16.60
2018-05-11T10:18:56.970Z,17.60
2018-05-11T10:19:56.958Z,17.80
2018-05-11T10:20:57.079Z,18.50
2018-05-11T10:21:56.924Z,17.10
2018-05-11T10:22:56.914Z,19.10
2018-05-11T10:23:56.891Z,16.60
2018-05-11T10:24:56.877Z,15.60
2018-05-11T10:25:56.861Z,16.30
2018-05-11T10:26:56.842Z,16.80
2018-05-11T10:27:56.838Z,15.00
2018-05-11T10:28:56.837Z,14.80
2018-05-11T10:29:56.799Z,14.30
2018-05-11T10:30:56.783Z,14.30
2018-05-11T10:31:56.770Z,16.10
2018-05-11T10:32:56.752Z,16.50
2018-05-11T10:33:56.740Z,17.00
2018-05-11T10:34:56.734Z,15.30
2018-05-11T10:35:56.711Z,16.80
2018-05-11T10:36:56.696Z,16.90
2018-05-11T10:37:56.672Z,16.60
2018-05-11T10:38:56.669Z,15.40
2018-05-11T10:39:56.685Z,16.50
2018-05-11T10:40:56.640Z,16.70
2018-05-11T10:41:56.611Z,15.40
2018-05-11T10:42:56.615Z,15.70
2018-05-11T10:43:56.590Z,15.30
2018-05-11T10:44:56.573Z,14.80
2018-05-11T10:45:56.560Z,16.20
2018-05-11T10:46:56.537Z,15.80
2018-05-11T10:47:56.546Z,15.60
2018-05-11T10:48:56.509Z,17.10
2018-05-11T10:49:56.490Z,15.90
2018-05-11T10:50:56.480Z,15.70
2018-05-11T10:51:56.467Z,14.40
2018-05-11T10:52:56.446Z,16.10
2018-05-11T10:53:56.431Z,14.90
2018-05-11T10:54:56.412Z,15.60
2018-05-11T10:55:56.396Z,15.70
2018-05-11T10:56:56.384Z,16.10
2018-05-11T10:57:56.381Z,15.40
2018-05-11T10:58:56.352Z,15.60
2018-05-11T10:59:56.335Z,14.80
2018-05-11T11:00:56.320Z,15.80
2018-05-11T11:01:56.303Z,15.80
2018-05-11T11:02:56.293Z,14.10
2018-05-11T11:03:56.279Z,16.10
2018-05-11T11:04:56.260Z,14.30
2018-05-11T11:05:56.248Z,14.80
2018-05-11T11:06:56.232Z,15.90
2018-05-11T11:07:56.223Z,15.30
2018-05-11T11:08:56.201Z,14.60
2018-05-11T11:09:56.187Z,15.20
2018-05-11T11:10:56.169Z,14.90
2018-05-11T11:11:56.150Z,15.00
2018-05-11T11:12:56.154Z,15.90
2018-05-11T11:13:56.132Z,14.80
2018-05-11T11:14:56.107Z,15.50
2018-05-11T11:15:56.100Z,15.20
2018-05-11T11:16:56.086Z,16.00
2018-05-11T11:17:56.060Z,13.90
2018-05-11T11:18:56.044Z,16.60
2018-05-11T11:19:56.066Z,16.30
2018-05-11T11:20:56.020Z,15.60
2018-05-11T11:21:56.000Z,13.90
2018-05-11T11:22:55.980Z,14.40
2018-05-11T11:23:55.967Z,14.90
2018-05-11T11:24:55.953Z,16.20
2018-05-11T11:25:55.999Z,14.10
2018-05-11T11:26:55.927Z,14.20
2018-05-11T11:27:55.907Z,14.20
2018-05-11T11:28:55.895Z,14.40
2018-05-11T11:29:55.882Z,12.30
2018-05-11T11:30:55.859Z,12.90
2018-05-11T11:31:55.850Z,14.20
2018-05-11T11:32:55.836Z,13.50
2018-05-11T11:33:55.815Z,13.00
2018-05-11T11:34:55.800Z,13.70
2018-05-11T11:35:55.781Z,15.00
2018-05-11T11:36:55.771Z,14.40
2018-05-11T11:37:55.756Z,12.80
2018-05-11T11:38:55.753Z,13.10
2018-05-11T11:39:55.732Z,13.00
2018-05-11T11:40:55.712Z,11.90
2018-05-11T11:41:55.741Z,14.10
2018-05-11T11:42:55.682Z,13.20
2018-05-11T11:43:55.667Z,13.90
2018-05-11T11:44:55.648Z,14.60
2018-05-11T11:45:55.642Z,14.20
2018-05-11T11:46:55.655Z,13.40
2018-05-11T11:47:55.606Z,14.70
2018-05-11T11:48:55.599Z,15.20
2018-05-11T11:49:55.576Z,14.50
2018-05-11T11:50:55.570Z,13.70
2018-05-11T11:51:55.548Z,14.80
2018-05-11T11:52:55.535Z,15.90
2018-05-11T11:53:55.524Z,16.20
2018-05-11T11:54:55.500Z,15.00
2018-05-11T11:55:55.485Z,15.50
2018-05-11T11:56:55.470Z,16.20
2018-05-11T11:57:55.468Z,16.00
2018-05-11T11:58:55.456Z,15.70
2018-05-11T11:59:55.430Z,16.20
2018-05-11T12:00:55.415Z,15.90
2018-05-11T12:01:55.472Z,15.70
2018-05-11T12:02:55.387Z,15.40
2018-05-11T12:03:55.372Z,16.80
2018-05-11T12:04:55.357Z,15.30
2018-05-11T12:05:55.343Z,15.20
2018-05-11T12:06:55.327Z,16.90
2018-05-11T12:07:55.314Z,15.80
2018-05-11T12:08:55.315Z,16.10
2018-05-11T12:09:55.284Z,17.00
2018-05-11T12:10:55.269Z,16.40
2018-05-11T12:11:55.260Z,16.50
2018-05-11T12:12:55.239Z,15.50
2018-05-11T12:13:55.226Z,17.90
2018-05-11T12:14:55.213Z,16.00
2018-05-11T12:15:55.193Z,17.60
2018-05-11T12:16:55.185Z,16.90
2018-05-11T12:17:55.167Z,17.80
2018-05-11T12:18:55.155Z,18.10
2018-05-11T12:19:55.139Z,18.80
2018-05-11T12:20:55.120Z,17.70
2018-05-11T12:21:55.120Z,18.90
2018-05-11T12:22:55.093Z,19.30
2018-05-11T12:23:55.075Z,20.00
2018-05-11T12:24:55.061Z,21.30
2018-05-11T12:25:55.063Z,17.10
2018-05-11T12:26:55.038Z,18.00
2018-05-11T12:27:55.057Z,17.30
2018-05-11T12:28:55.008Z,18.20
2018-05-11T12:29:54.992Z,18.90
2018-05-11T12:30:54.975Z,17.40
2018-05-11T12:31:54.963Z,17.70
2018-05-11T12:32:54.958Z,16.40
2018-05-11T12:33:54.935Z,17.30
2018-05-11T12:34:54.964Z,17.00
2018-05-11T12:35:54.906Z,17.30
2018-05-11T12:36:54.891Z,17.40
2018-05-11T12:37:54.890Z,19.20
2018-05-11T12:38:54.864Z,18.30
2018-05-11T12:39:54.851Z,17.20
2018-05-11T12:40:54.833Z,17.70
2018-05-11T12:41:54.821Z,17.60
2018-05-11T12:42:54.807Z,18.20
2018-05-11T12:43:54.795Z,17.60
2018-05-11T12:44:54.784Z,16.40
2018-05-11T12:45:54.772Z,17.40
2018-05-11T12:46:54.749Z,16.60
2018-05-11T12:47:54.730Z,16.90
2018-05-11T12:48:54.718Z,16.70
2018-05-11T12:49:54.698Z,19.00
2018-05-11T12:50:54.703Z,18.70
2018-05-11T12:51:54.689Z,17.00
2018-05-11T12:52:54.725Z,17.00
2018-05-11T12:53:54.646Z,18.70